Time;durP1;ratioP1;P1;durP2;ratioP2;P2;SDS_P1;SDS_P2;PMS_P1;PMS_P2;Temp;Humidity;BMP_temperature;BMP_pressure;BME280_temperature;BME280_humidity;BME280_pressure;Samples;Min_cycle;Max_cycle;Signal;HPM_P1;HPM_P2
2022/09/20 00:01:21;;;;;;;4.55;1.80;;;13.40;99.90;;;;;;5000407;28;25123;-75
2022/09/20 00:03:54;;;;;;;5.82;2.55;;;13.50;99.90;;;;;;4998518;28;25084;-75
2022/09/20 00:06:23;;;;;;;5.55;1.88;;;13.70;99.90;;;;;;4992970;28;25093;-76
2022/09/20 00:08:49;;;;;;;6.90;2.03;;;13.60;99.90;;;;;;4987606;28;25059;-74
2022/09/20 00:11:21;;;;;;;6.10;1.90;;;13.60;99.90;;;;;;4999753;28;25063;-74
2022/09/20 00:13:49;;;;;;;10.93;1.95;;;13.60;99.90;;;;;;4992296;28;25147;-76
2022/09/20 00:16:18;;;;;;;5.80;1.70;;;13.60;99.90;;;;;;4984495;28;25081;-74
2022/09/20 00:18:48;;;;;;;6.47;2.10;;;13.60;99.90;;;;;;4999185;28;25068;-75
2022/09/20 00:21:20;;;;;;;9.63;2.70;;;13.50;99.90;;;;;;4991898;28;25075;-75
2022/09/20 00:23:45;;;;;;;6.10;2.00;;;13.60;99.90;;;;;;5001834;28;25154;-75
2022/09/20 00:26:12;;;;;;;7.45;1.70;;;13.60;99.90;;;;;;4992360;28;25147;-75
2022/09/20 00:28:39;;;;;;;8.13;1.70;;;13.70;99.90;;;;;;4997703;28;25072;-75
2022/09/20 00:31:05;;;;;;;8.20;2.10;;;13.80;99.90;;;;;;4990454;28;25056;-75
2022/09/20 00:35:06;;;;;;;8.35;1.77;;;13.90;99.90;;;;;;4995613;28;25061;-75
2022/09/20 00:36:16;;;;;;;5.35;1.90;;;13.80;99.90;;;;;;4994064;28;25066;-75
2022/09/20 00:38:42;;;;;;;3.08;1.58;;;13.90;99.90;;;;;;4999497;28;25078;-76
2022/09/20 00:41:08;;;;;;;5.03;1.60;;;13.90;99.90;;;;;;4987285;28;25075;-75
2022/09/20 00:43:37;;;;;;;3.58;1.65;;;13.90;99.90;;;;;;5003840;28;25076;-75
2022/09/20 00:46:05;;;;;;;3.17;1.70;;;13.80;99.90;;;;;;4997757;28;25075;-76
2022/09/20 00:48:32;;;;;;;4.40;1.65;;;13.90;99.90;;;;;;4991763;28;25159;-76
2022/09/20 00:51:06;;;;;;;3.65;1.45;;;14.00;99.90;;;;;;5000515;28;25083;-76
2022/09/20 00:53:37;;;;;;;6.55;1.50;;;13.90;99.90;;;;;;5002026;28;25117;-76
2022/09/20 00:56:12;;;;;;;4.68;1.42;;;13.80;99.90;;;;;;4994410;28;25065;-76
2022/09/20 00:58:55;;;;;;;2.75;1.67;;;13.80;99.90;;;;;;4986573;28;25175;-77
2022/09/20 01:01:20;;;;;;;6.60;1.30;;;13.80;99.90;;;;;;4991595;28;25069;-76
2022/09/20 01:03:47;;;;;;;4.20;1.70;;;13.90;99.90;;;;;;4995487;28;25056;-75
2022/09/20 01:06:14;;;;;;;5.63;1.23;;;14.10;99.90;;;;;;4998942;28;25150;-75
2022/09/20 01:08:44;;;;;;;2.20;1.20;;;14.20;99.90;;;;;;4977675;28;25064;-75
2022/09/20 01:11:10;;;;;;;5.07;1.60;;;14.10;99.90;;;;;;4980217;28;25053;-75
2022/09/20 01:13:35;;;;;;;6.97;1.90;;;13.90;99.90;;;;;;4994770;28;25105;-75
2022/09/20 01:16:03;;;;;;;12.73;2.30;;;13.70;99.90;;;;;;5000813;28;25059;-74
2022/09/20 01:18:30;;;;;;;6.07;2.08;;;13.30;99.90;;;;;;5003671;28;25080;-73
2022/09/20 01:20:58;;;;;;;5.75;2.05;;;13.60;99.90;;;;;;5002462;28;25060;-73
2022/09/20 01:23:35;;;;;;;4.60;1.42;;;13.80;99.90;;;;;;5001719;28;25094;-73
2022/09/20 01:26:31;;;;;;;8.13;2.15;;;13.90;99.90;;;;;;4998689;28;25105;-71
2022/09/20 01:29:24;;;;;;;8.77;1.85;;;14.00;99.90;;;;;;5000870;28;25161;-74
2022/09/20 01:31:52;;;;;;;;;;;14.10;99.90;;;;;;4980181;28;25061;-75
2022/09/20 01:34:26;;;;;;;4.43;1.63;;;14.10;99.90;;;;;;5009943;28;24075;-73
2022/09/20 01:37:14;;;;;;;4.60;1.67;;;14.20;99.90;;;;;;4994556;28;25114;-73
2022/09/20 01:40:01;;;;;;;8.38;2.13;;;14.30;99.90;;;;;;4986900;28;25102;-74
2022/09/20 01:42:34;;;;;;;5.90;1.80;;;14.30;99.90;;;;;;4988107;28;25070;-75
2022/09/20 01:45:24;;;;;;;3.08;1.52;;;14.50;99.90;;;;;;4990656;28;25072;-75
2022/09/20 01:48:32;;;;;;;7.63;2.17;;;14.60;99.90;;;;;;4996845;28;25095;-74
2022/09/20 01:51:23;;;;;;;3.67;1.88;;;14.60;99.90;;;;;;4984386;28;25068;-75
2022/09/20 01:54:01;;;;;;;7.15;1.60;;;14.70;99.90;;;;;;4994184;28;25071;-75
2022/09/20 01:56:48;;;;;;;4.03;1.60;;;14.70;99.90;;;;;;4996531;28;25066;-74
2022/09/20 01:59:42;;;;;;;3.80;1.70;;;14.50;99.90;;;;;;4978297;28;25137;-74
2022/09/20 02:02:12;;;;;;;6.22;1.75;;;14.50;99.90;;;;;;4990430;28;25075;-74
2022/09/20 02:05:04;;;;;;;6.55;2.13;;;14.40;99.90;;;;;;4997113;28;25065;-75
2022/09/20 02:08:04;;;;;;;3.10;1.25;;;14.20;99.90;;;;;;4993844;28;25061;-74
2022/09/20 02:10:33;;;;;;;6.63;2.15;;;14.20;99.90;;;;;;4996640;28;25103;-75
2022/09/20 02:13:03;;;;;;;4.53;1.60;;;14.00;99.90;;;;;;5000932;28;25095;-75
2022/09/20 02:15:56;;;;;;;3.28;1.80;;;14.00;99.90;;;;;;4992691;28;25075;-74
2022/09/20 02:18:49;;;;;;;6.65;1.70;;;14.00;99.90;;;;;;5001611;28;25069;-75
2022/09/20 02:21:30;;;;;;;7.07;1.73;;;14.00;99.90;;;;;;4982406;28;25119;-76
2022/09/20 02:24:36;;;;;;;7.20;2.10;;;14.20;99.90;;;;;;4988629;28;25077;-74
2022/09/20 02:27:39;;;;;;;7.75;2.13;;;14.10;99.90;;;;;;4992961;28;25070;-74
2022/09/20 02:30:07;;;;;;;;;;;14.20;99.90;;;;;;4997743;28;25062;-75
2022/09/20 02:33:08;;;;;;;3.85;1.38;;;14.10;99.90;;;;;;4990868;28;24081;-76
2022/09/20 02:35:53;;;;;;;3.30;1.50;;;14.10;99.90;;;;;;4985563;28;25065;-75
2022/09/20 02:38:30;;;;;;;7.60;1.83;;;14.20;99.90;;;;;;5001550;28;25045;-76
2022/09/20 02:40:56;;;;;;;9.13;1.95;;;14.10;99.90;;;;;;5006892;28;25051;-76
2022/09/20 02:43:50;;;;;;;4.78;1.63;;;13.90;99.90;;;;;;5005692;28;25107;-76
2022/09/20 02:46:25;;;;;;;7.15;1.90;;;14.00;99.90;;;;;;4992653;28;25148;-76
2022/09/20 02:49:13;;;;;;;6.75;1.92;;;14.00;99.90;;;;;;4995962;28;25070;-76
2022/09/20 02:51:42;;;;;;;4.05;1.92;;;14.00;99.90;;;;;;5003996;28;25070;-76
2022/09/20 02:54:25;;;;;;;5.75;1.90;;;13.80;99.90;;;;;;5011532;28;25086;-75
2022/09/20 02:57:16;;;;;;;7.70;1.90;;;13.80;99.90;;;;;;4995128;28;25057;-76
2022/09/20 03:00:02;;;;;;;7.38;1.90;;;13.80;99.90;;;;;;5000681;28;25143;-76
2022/09/20 03:02:50;;;;;;;4.57;1.95;;;13.70;99.90;;;;;;4998523;28;25103;-75
2022/09/20 03:05:24;;;;;;;6.72;1.88;;;13.70;99.90;;;;;;4997924;28;25141;-75
2022/09/20 03:08:03;;;;;;;7.43;1.95;;;13.60;99.90;;;;;;4973034;28;25069;-76
2022/09/20 03:10:43;;;;;;;8.13;2.63;;;13.50;99.90;;;;;;4991948;28;25139;-76
2022/09/20 03:13:24;;;;;;;9.90;1.92;;;13.50;99.90;;;;;;4999641;28;25151;-75
2022/09/20 03:16:11;;;;;;;6.93;1.80;;;13.40;99.90;;;;;;4996590;28;25073;-74
2022/09/20 03:18:49;;;;;;;5.45;2.38;;;13.40;99.90;;;;;;4993142;28;25075;-75
2022/09/20 03:21:27;;;;;;;3.72;1.50;;;13.50;99.90;;;;;;4996964;28;25064;-76
2022/09/20 03:24:21;;;;;;;6.57;1.83;;;13.40;99.90;;;;;;4977028;28;25150;-76
2022/09/20 03:27:08;;;;;;;3.53;1.88;;;13.50;99.90;;;;;;5000647;28;25072;-75
2022/09/20 03:30:13;;;;;;;7.30;2.65;;;13.40;99.90;;;;;;4991374;28;25051;-76
2022/09/20 03:32:54;;;;;;;4.50;2.00;;;13.30;99.90;;;;;;4978888;28;25124;-76
2022/09/20 03:35:26;;;;;;;3.22;2.17;;;13.30;99.90;;;;;;4997991;28;25077;-76
2022/09/20 03:38:35;;;;;;;5.10;2.13;;;13.40;99.90;;;;;;4996649;28;25089;-76
2022/09/20 03:41:07;;;;;;;5.38;2.03;;;13.30;99.90;;;;;;4934299;28;25083;-76
2022/09/20 03:43:56;;;;;;;8.40;1.80;;;13.30;99.90;;;;;;4990286;28;25123;-76
2022/09/20 03:46:30;;;;;;;3.35;1.80;;;13.30;99.90;;;;;;4986219;28;25081;-76
2022/09/20 03:49:10;;;;;;;3.53;1.98;;;13.30;99.90;;;;;;4994216;28;25080;-75
2022/09/20 03:51:54;;;;;;;4.53;2.17;;;13.30;99.90;;;;;;4995453;28;25055;-76
2022/09/20 03:55:01;;;;;;;3.03;1.90;;;13.20;99.90;;;;;;4992544;28;25137;-76
2022/09/20 03:57:44;;;;;;;6.20;2.45;;;13.10;99.90;;;;;;4996311;28;25077;-76
2022/09/20 04:00:47;;;;;;;6.22;1.88;;;13.10;99.90;;;;;;4999243;28;25063;-77
2022/09/20 04:03:19;;;;;;;3.85;2.20;;;13.20;99.90;;;;;;4983277;28;25061;-76
2022/09/20 04:05:58;;;;;;;7.22;2.17;;;13.30;99.90;;;;;;5023757;28;25067;-75
2022/09/20 04:09:01;;;;;;;3.75;2.38;;;13.40;99.90;;;;;;5026870;28;25049;-75
2022/09/20 04:11:39;;;;;;;3.17;2.25;;;13.30;99.90;;;;;;5009450;28;25073;-75
2022/09/20 04:14:17;;;;;;;4.65;2.30;;;13.40;99.90;;;;;;5001063;28;25487;-76
2022/09/20 04:16:54;;;;;;;6.43;2.67;;;13.40;99.90;;;;;;4992465;28;25049;-75
2022/09/20 04:19:37;;;;;;;3.97;2.20;;;13.30;99.90;;;;;;4998779;28;25111;-75
2022/09/20 04:22:06;;;;;;;4.75;2.05;;;13.50;99.90;;;;;;4991751;28;25068;-75
2022/09/20 04:24:52;;;;;;;6.35;2.40;;;13.50;99.90;;;;;;4997458;28;25056;-76
2022/09/20 04:27:28;;;;;;;7.95;2.05;;;13.50;99.90;;;;;;4992962;28;25139;-76
2022/09/20 04:30:18;;;;;;;7.32;1.90;;;13.50;99.90;;;;;;4992102;28;25079;-76
2022/09/20 04:33:00;;;;;;;3.72;1.92;;;13.40;99.90;;;;;;4984940;28;25135;-77
2022/09/20 04:38:36;;;;;;;7.65;2.17;;;13.50;99.90;;;;;;4989124;28;25086;-76
2022/09/20 04:41:20;;;;;;;8.55;2.22;;;13.20;99.90;;;;;;4987121;28;25077;-76
2022/09/20 04:44:16;;;;;;;5.68;1.98;;;13.30;99.90;;;;;;4992159;28;25163;-76
2022/09/20 04:47:01;;;;;;;7.07;1.75;;;13.40;99.90;;;;;;4991013;28;25054;-75
2022/09/20 04:50:09;;;;;;;8.13;2.00;;;13.50;99.90;;;;;;4990731;28;25080;-73
2022/09/20 04:52:52;;;;;;;7.65;2.00;;;13.50;99.90;;;;;;4988330;28;25170;-74
2022/09/20 04:55:39;;;;;;;9.48;2.70;;;13.60;99.90;;;;;;4988329;28;25080;-76
2022/09/20 04:58:42;;;;;;;6.55;1.73;;;13.80;99.90;;;;;;4988132;28;25055;-75
2022/09/20 05:01:19;;;;;;;7.55;1.70;;;13.70;99.90;;;;;;4990838;28;25069;-75
2022/09/20 05:04:07;;;;;;;5.00;1.75;;;13.80;99.90;;;;;;4995904;28;25066;-75
2022/09/20 05:06:51;;;;;;;5.38;1.63;;;14.00;99.90;;;;;;4987988;28;25073;-76
2022/09/20 05:09:25;;;;;;;2.65;1.23;;;14.00;99.90;;;;;;4989549;28;25071;-77
2022/09/20 05:12:19;;;;;;;4.32;1.42;;;14.10;99.90;;;;;;4974685;28;25169;-76
2022/09/20 05:15:07;;;;;;;8.25;1.40;;;14.10;99.90;;;;;;4998076;28;25097;-77
2022/09/20 05:17:51;;;;;;;2.05;1.10;;;14.10;99.90;;;;;;4998337;28;25104;-78
2022/09/20 05:20:44;;;;;;;6.45;1.50;;;14.10;99.90;;;;;;4985447;28;25104;-77
2022/09/20 05:23:49;;;;;;;4.38;1.25;;;14.20;99.90;;;;;;4991996;28;25074;-77
2022/09/20 05:26:23;;;;;;;4.03;1.35;;;14.20;99.90;;;;;;4978933;28;25089;-78
2022/09/20 05:29:11;;;;;;;1.70;1.08;;;14.10;99.90;;;;;;4995454;28;25052;-78
2022/09/20 05:31:43;;;;;;;4.38;1.75;;;14.10;99.90;;;;;;5004792;28;25030;-78
2022/09/20 05:34:28;;;;;;;;;;;14.10;99.90;;;;;;4998912;28;25068;-77
2022/09/20 05:37:32;;;;;;;6.00;1.85;;;14.20;99.90;;;;;;5001564;28;25047;-76
2022/09/20 05:40:27;;;;;;;3.78;1.30;;;14.30;99.90;;;;;;4962725;28;25057;-77
2022/09/20 05:43:34;;;;;;;7.97;1.30;;;14.30;99.90;;;;;;4988016;28;25146;-77
2022/09/20 05:46:30;;;;;;;5.18;1.83;;;14.30;99.90;;;;;;4940159;29;25161;-75
2022/09/20 05:49:05;;;;;;;2.80;1.38;;;14.40;99.90;;;;;;4997218;28;25094;-77
2022/09/20 05:51:37;;;;;;;6.75;1.13;;;14.50;99.90;;;;;;4999090;28;25108;-77
2022/09/20 05:54:24;;;;;;;5.50;1.63;;;14.60;99.90;;;;;;5008100;28;25085;-77
2022/09/20 05:57:17;;;;;;;5.20;1.45;;;14.80;99.90;;;;;;5012485;28;25112;-76
2022/09/20 05:59:57;;;;;;;11.15;2.33;;;15.00;99.90;;;;;;5010082;28;25065;-74
2022/09/20 06:02:50;;;;;;;5.88;1.48;;;15.00;99.90;;;;;;5003495;28;25128;-78
2022/09/20 06:05:24;;;;;;;7.10;1.50;;;15.00;99.90;;;;;;4995861;28;25143;-77
2022/09/20 06:08:08;;;;;;;4.75;1.27;;;14.90;99.90;;;;;;5004876;28;25053;-76
2022/09/20 06:10:56;;;;;;;4.22;1.38;;;14.70;99.90;;;;;;5004071;28;25101;-74
2022/09/20 06:13:58;;;;;;;5.38;1.48;;;14.30;99.90;;;;;;4998869;28;25089;-75
2022/09/20 06:16:45;;;;;;;10.05;1.63;;;14.30;99.90;;;;;;4994612;28;25055;-75
2022/09/20 06:19:45;;;;;;;4.40;1.13;;;14.40;99.90;;;;;;4986971;28;25083;-77
2022/09/20 06:22:27;;;;;;;7.88;1.48;;;14.70;99.90;;;;;;4995393;28;25059;-76
2022/09/20 06:25:07;;;;;;;12.30;1.90;;;14.60;99.90;;;;;;4998575;28;25157;-76
2022/09/20 06:27:54;;;;;;;4.43;1.20;;;14.70;99.90;;;;;;4999479;28;25088;-76
2022/09/20 06:30:23;;;;;;;5.25;1.73;;;14.80;99.90;;;;;;4995283;28;25069;-75
2022/09/20 06:32:53;;;;;;;11.70;2.38;;;14.80;99.90;;;;;;5001461;28;25082;-75
2022/09/20 06:35:21;;;;;;;6.60;1.35;;;14.80;99.90;;;;;;4986003;28;25072;-75
2022/09/20 06:43:35;;;;;;;4.30;2.00;;;14.90;99.90;;;;;;5009374;28;25085;-76
2022/09/20 06:46:01;;;;;;;6.80;1.85;;;14.90;99.90;;;;;;5006047;28;25087;-76
2022/09/20 06:48:30;;;;;;;5.88;1.90;;;15.00;99.90;;;;;;5002630;28;25065;-77
2022/09/20 06:50:56;;;;;;;9.10;1.50;;;15.10;99.90;;;;;;5000891;28;25075;-77
2022/09/20 06:53:31;;;;;;;9.32;1.95;;;15.20;99.90;;;;;;5004072;28;25066;-77
2022/09/20 06:55:57;;;;;;;7.70;1.95;;;15.10;99.90;;;;;;4993173;28;25087;-77
2022/09/20 06:58:23;;;;;;;9.48;3.05;;;15.20;99.90;;;;;;5001984;28;25077;-77
2022/09/20 07:00:48;;;;;;;6.95;2.20;;;15.20;99.90;;;;;;4991196;28;25138;-78
2022/09/20 07:03:14;;;;;;;5.65;2.67;;;15.10;99.90;;;;;;5008814;28;25074;-78
2022/09/20 07:05:39;;;;;;;10.30;2.00;;;15.20;99.90;;;;;;5005156;28;25069;-78
2022/09/20 07:08:05;;;;;;;7.90;2.63;;;15.30;99.90;;;;;;5013777;28;25069;-79
2022/09/20 07:10:31;;;;;;;8.45;2.38;;;15.30;99.90;;;;;;5012557;28;25162;-78
2022/09/20 07:12:58;;;;;;;7.32;2.45;;;15.40;99.90;;;;;;4998841;28;25063;-77
2022/09/20 07:15:24;;;;;;;7.45;2.40;;;15.40;99.90;;;;;;5011174;28;25052;-77
2022/09/20 07:17:50;;;;;;;7.22;3.25;;;15.10;99.90;;;;;;5003838;28;25078;-76
2022/09/20 07:20:16;;;;;;;5.55;2.50;;;15.20;99.90;;;;;;4999444;28;25112;-77
2022/09/20 07:22:42;;;;;;;6.25;2.70;;;15.20;99.90;;;;;;4999870;28;25070;-78
2022/09/20 07:25:08;;;;;;;9.40;2.50;;;15.30;99.90;;;;;;5003627;28;25072;-78
2022/09/20 07:27:33;;;;;;;7.00;2.45;;;15.30;99.90;;;;;;5002778;28;25097;-78
2022/09/20 07:29:59;;;;;;;3.50;1.50;;;15.40;99.90;;;;;;5019319;28;25088;-78
2022/09/20 07:32:25;;;;;;;4.47;1.80;;;15.50;99.90;;;;;;5023447;28;25081;-79
2022/09/20 07:34:51;;;;;;;3.28;1.40;;;15.50;99.90;;;;;;5021396;28;25063;-78
2022/09/20 07:37:18;;;;;;;4.65;1.27;;;15.40;99.90;;;;;;5009480;28;25054;-76
2022/09/20 07:39:44;;;;;;;4.45;1.20;;;15.10;99.90;;;;;;5016243;28;25051;-77
2022/09/20 07:42:10;;;;;;;9.60;2.35;;;15.00;99.90;;;;;;4991730;28;25135;-75
2022/09/20 07:44:39;;;;;;;5.07;1.73;;;14.90;99.90;;;;;;4996629;28;25053;-77
2022/09/20 07:47:05;;;;;;;3.90;1.77;;;14.90;99.90;;;;;;5003136;28;25106;-76
2022/09/20 07:49:31;;;;;;;3.90;1.27;;;14.90;99.90;;;;;;5006082;28;25128;-76
2022/09/20 07:51:57;;;;;;;4.93;1.60;;;14.90;99.90;;;;;;4987462;28;25061;-76
2022/09/20 07:54:23;;;;;;;3.45;1.40;;;15.20;99.90;;;;;;5008597;28;25122;-77
2022/09/20 07:56:48;;;;;;;5.35;1.33;;;15.30;99.90;;;;;;5008571;28;25050;-77
2022/09/20 07:59:14;;;;;;;5.70;1.60;;;15.50;99.90;;;;;;5010102;28;25066;-76
2022/09/20 08:01:41;;;;;;;5.35;1.17;;;15.50;99.90;;;;;;4986604;28;25104;-77
2022/09/20 08:04:07;;;;;;;4.15;1.02;;;15.30;99.90;;;;;;5008655;28;25063;-76
2022/09/20 08:06:42;;;;;;;8.25;2.10;;;15.00;99.90;;;;;;5010489;28;25068;-77
2022/09/20 08:09:09;;;;;;;5.80;1.55;;;15.00;99.90;;;;;;5003741;28;25078;-76
2022/09/20 08:11:36;;;;;;;4.03;1.33;;;15.10;99.90;;;;;;5008425;28;25063;-76
2022/09/20 08:14:02;;;;;;;2.30;1.00;;;15.30;99.90;;;;;;5004061;28;25097;-77
2022/09/20 08:16:29;;;;;;;5.13;1.00;;;15.40;99.90;;;;;;5008088;28;25116;-77
2022/09/20 08:18:59;;;;;;;6.07;1.52;;;15.50;99.90;;;;;;5005003;28;25088;-76
2022/09/20 08:21:28;;;;;;;4.30;1.48;;;15.50;99.90;;;;;;5003246;28;25054;-76
2022/09/20 08:23:54;;;;;;;5.60;1.80;;;15.60;99.90;;;;;;5001761;28;25066;-76
2022/09/20 08:26:25;;;;;;;3.05;1.25;;;15.70;99.90;;;;;;5010825;28;25059;-77
2022/09/20 08:28:52;;;;;;;4.95;1.20;;;15.70;99.90;;;;;;4986920;28;25046;-76
2022/09/20 08:31:20;;;;;;;6.05;1.35;;;15.60;99.90;;;;;;5007629;28;25154;-76
2022/09/20 08:33:47;;;;;;;9.60;1.40;;;15.40;99.90;;;;;;5005675;28;25146;-76
2022/09/20 08:36:19;;;;;;;4.70;1.23;;;15.70;99.90;;;;;;5004493;28;25079;-75
2022/09/20 08:38:45;;;;;;;4.72;1.30;;;16.00;99.90;;;;;;5006737;28;25145;-77
2022/09/20 08:41:17;;;;;;;4.35;1.23;;;16.20;99.90;;;;;;5009473;28;25063;-77
2022/09/20 08:44:03;;;;;;;3.88;1.40;;;15.80;99.90;;;;;;4996651;28;25048;-76
2022/09/20 08:46:34;;;;;;;3.85;1.50;;;16.20;99.90;;;;;;5001917;28;25156;-76
2022/09/20 08:49:03;;;;;;;3.47;1.20;;;16.70;99.90;;;;;;5004378;28;25084;-77
2022/09/20 08:51:33;;;;;;;5.05;1.17;;;16.90;99.90;;;;;;4995453;28;25059;-76
2022/09/20 08:53:59;;;;;;;2.35;1.20;;;16.90;99.90;;;;;;5009608;28;25102;-76
2022/09/20 08:56:33;;;;;;;5.38;1.13;;;16.30;99.90;;;;;;5011303;28;25143;-76
2022/09/20 08:58:59;;;;;;;3.90;0.80;;;16.60;99.90;;;;;;4985577;28;25071;-76
2022/09/20 09:01:28;;;;;;;3.75;0.70;;;16.40;99.90;;;;;;5002646;28;25064;-77
2022/09/20 09:04:20;;;;;;;4.40;1.10;;;16.10;99.90;;;;;;4995006;28;25081;-76
2022/09/20 09:06:47;;;;;;;4.40;1.05;;;16.80;99.90;;;;;;4996177;28;25083;-75
2022/09/20 09:09:23;;;;;;;3.33;1.25;;;16.30;99.90;;;;;;5000960;28;25090;-76
2022/09/20 09:11:50;;;;;;;1.83;0.50;;;16.10;99.90;;;;;;5003417;28;25062;-75
2022/09/20 09:17:17;;;;;;;10.27;1.10;;;16.40;99.90;;;;;;4996265;28;25086;-75
2022/09/20 09:19:52;;;;;;;3.88;0.85;;;16.20;99.90;;;;;;4996857;28;25059;-76
2022/09/20 09:22:31;;;;;;;7.00;1.90;;;15.80;99.90;;;;;;5007762;28;25079;-75
2022/09/20 09:25:07;;;;;;;4.03;1.42;;;15.80;99.90;;;;;;4972998;28;25076;-75
2022/09/20 09:27:33;;;;;;;6.05;1.08;;;15.80;99.90;;;;;;5005682;28;25059;-75
2022/09/20 09:30:00;;;;;;;4.50;1.17;;;16.00;99.90;;;;;;5003912;28;25080;-74
2022/09/20 09:32:29;;;;;;;5.55;1.20;;;16.10;99.90;;;;;;5004698;28;25067;-76
2022/09/20 09:35:17;;;;;;;3.95;1.55;;;16.00;99.90;;;;;;4986431;28;25094;-75
2022/09/20 09:37:56;;;;;;;3.60;0.90;;;15.70;99.90;;;;;;5001803;28;25070;-76
2022/09/20 09:40:22;;;;;;;6.25;1.30;;;15.50;99.90;;;;;;5004390;28;25051;-74
2022/09/20 09:42:53;;;;;;;2.05;0.82;;;15.20;99.90;;;;;;5007229;28;25146;-74
2022/09/20 09:45:37;;;;;;;4.60;0.70;;;15.20;99.90;;;;;;5003770;28;25135;-75
2022/09/20 09:48:23;;;;;;;3.20;0.98;;;15.20;99.90;;;;;;5000457;28;25054;-76
2022/09/20 09:50:49;;;;;;;3.58;1.40;;;15.20;99.90;;;;;;4999845;28;25116;-77
2022/09/20 09:53:25;;;;;;;4.07;0.70;;;15.20;99.90;;;;;;5004243;28;25071;-76
2022/09/20 09:56:03;;;;;;;7.03;1.17;;;15.20;99.90;;;;;;4993784;28;25145;-76
2022/09/20 09:58:56;;;;;;;3.00;1.00;;;15.30;99.90;;;;;;5006633;28;25087;-76
2022/09/20 10:01:38;;;;;;;2.13;0.70;;;15.40;99.90;;;;;;4992511;28;25099;-75
2022/09/20 10:04:31;;;;;;;3.05;1.10;;;15.40;99.90;;;;;;4981220;28;25138;-76
2022/09/20 10:07:39;;;;;;;2.70;1.15;;;15.50;99.90;;;;;;4988396;28;25155;-76
2022/09/20 10:10:22;;;;;;;1.13;0.52;;;15.50;99.90;;;;;;4941866;29;25059;-76
2022/09/20 10:13:07;;;;;;;1.05;0.60;;;15.50;99.90;;;;;;4998438;28;25130;-77
2022/09/20 10:15:40;;;;;;;5.25;0.70;;;15.50;99.90;;;;;;4995964;28;25088;-75
2022/09/20 10:18:20;;;;;;;2.03;0.60;;;15.60;99.90;;;;;;4993518;28;25059;-74
2022/09/20 10:21:06;;;;;;;2.80;0.68;;;15.50;99.90;;;;;;4990938;28;25083;-75
2022/09/20 10:23:54;;;;;;;3.92;0.82;;;15.60;99.90;;;;;;5000185;28;25055;-75
2022/09/20 10:26:47;;;;;;;5.72;1.10;;;15.50;99.90;;;;;;5005322;28;25111;-75
2022/09/20 10:29:45;;;;;;;1.90;0.50;;;15.60;99.90;;;;;;5010171;28;25141;-75
2022/09/20 10:32:13;;;;;;;2.13;0.88;;;15.60;99.90;;;;;;5010206;28;25142;-73
2022/09/20 10:34:44;;;;;;;3.80;0.80;;;15.70;99.90;;;;;;5000833;28;25057;-74
2022/09/20 10:37:45;;;;;;;5.40;1.27;;;15.70;99.90;;;;;;5002878;28;25083;-76
2022/09/20 10:40:14;;;;;;;1.77;0.60;;;15.70;99.90;;;;;;4998152;28;25049;-76
2022/09/20 10:45:57;;;;;;;7.97;1.25;;;16.00;99.90;;;;;;5000754;28;25120;-76
2022/09/20 10:48:39;;;;;;;2.75;0.80;;;16.00;99.90;;;;;;4972730;28;25137;-75
2022/09/20 10:51:17;;;;;;;2.13;0.57;;;16.10;99.90;;;;;;4996634;28;25068;-76
2022/09/20 10:54:06;;;;;;;5.88;0.95;;;16.30;99.90;;;;;;5003799;28;25070;-75
2022/09/20 10:56:48;;;;;;;4.97;1.42;;;16.20;99.90;;;;;;4997822;28;25085;-75
2022/09/20 10:59:16;;;;;;;4.35;0.80;;;16.40;99.90;;;;;;5003504;28;25073;-76
2022/09/20 11:01:48;;;;;;;3.75;0.85;;;16.30;99.90;;;;;;5003905;28;25102;-73
2022/09/20 11:04:35;;;;;;;6.50;1.30;;;16.10;99.90;;;;;;5002278;28;25052;-75
2022/09/20 11:07:36;;;;;;;4.60;0.88;;;15.60;99.90;;;;;;5003576;28;25099;-73
2022/09/20 11:10:13;;;;;;;6.72;1.00;;;15.30;99.90;;;;;;5002428;28;25056;-75
2022/09/20 11:12:50;;;;;;;6.40;1.15;;;15.20;99.90;;;;;;5008949;28;25069;-74
2022/09/20 11:15:15;;;;;;;1.33;1.00;;;15.00;99.90;;;;;;5002673;28;25083;-75
2022/09/20 11:17:48;;;;;;;3.28;0.80;;;14.90;99.90;;;;;;5010787;28;25101;-75
2022/09/20 11:20:28;;;;;;;6.05;1.23;;;14.90;99.90;;;;;;5009504;28;25092;-74
2022/09/20 11:23:17;;;;;;;4.38;0.88;;;14.70;99.90;;;;;;5015708;28;25062;-72
2022/09/20 11:25:57;;;;;;;2.78;0.77;;;14.60;99.90;;;;;;5027456;28;25094;-74
2022/09/20 11:28:38;;;;;;;9.27;1.35;;;14.60;99.90;;;;;;5031776;28;25052;-72
2022/09/20 11:31:13;;;;;;;1.92;1.13;;;14.50;99.90;;;;;;5024129;28;25054;-74
2022/09/20 11:33:59;;;;;;;3.72;0.90;;;14.60;99.90;;;;;;5020056;28;25069;-75
2022/09/20 11:36:33;;;;;;;3.88;1.52;;;14.70;99.90;;;;;;5012799;28;25113;-74
2022/09/20 11:39:04;;;;;;;3.15;1.00;;;14.60;99.90;;;;;;4984466;28;25092;-75
2022/09/20 11:41:31;;;;;;;3.35;1.08;;;14.70;99.90;;;;;;5008563;28;25063;-76
2022/09/20 11:44:03;;;;;;;4.68;1.33;;;14.70;99.90;;;;;;5004198;28;25062;-76
2022/09/20 11:46:49;;;;;;;4.35;1.33;;;14.80;99.90;;;;;;5012567;28;25063;-74
2022/09/20 11:49:29;;;;;;;3.38;1.17;;;14.90;99.90;;;;;;5001896;28;25078;-75
2022/09/20 11:52:24;;;;;;;2.95;1.05;;;15.00;99.90;;;;;;5004347;28;25082;-74
2022/09/20 11:55:07;;;;;;;3.45;1.30;;;15.10;99.90;;;;;;5007050;28;25068;-75
2022/09/20 11:57:33;;;;;;;4.97;1.30;;;16.00;99.90;;;;;;5009247;28;25148;-75
2022/09/20 12:00:04;;;;;;;6.80;1.13;;;16.90;99.90;;;;;;4986383;28;25083;-76
2022/09/20 12:02:52;;;;;;;6.05;1.23;;;17.40;99.90;;;;;;4993523;28;25061;-74
2022/09/20 12:05:31;;;;;;;4.22;1.17;;;17.70;99.90;;;;;;4995051;28;25057;-75
2022/09/20 12:07:58;;;;;;;4.55;0.70;;;17.70;99.90;;;;;;4995078;28;25080;-75
2022/09/20 12:10:27;;;;;;;8.40;1.38;;;17.80;99.90;;;;;;4988779;28;25066;-75
2022/09/20 12:13:04;;;;;;;2.45;1.13;;;18.10;99.90;;;;;;5003952;28;25114;-74
2022/09/20 12:15:39;;;;;;;1.95;0.70;;;18.10;99.90;;;;;;4999709;28;25163;-73
2022/09/20 12:18:14;;;;;;;6.80;0.90;;;17.30;99.90;;;;;;4998360;28;25079;-74
2022/09/20 12:20:43;;;;;;;2.17;0.77;;;16.60;99.90;;;;;;4996957;28;25069;-74
2022/09/20 12:23:40;;;;;;;5.75;1.00;;;16.50;99.90;;;;;;5004621;28;25131;-75
2022/09/20 12:26:09;;;;;;;2.70;1.08;;;16.50;99.90;;;;;;5007737;28;25126;-75
2022/09/20 12:28:43;;;;;;;6.18;1.83;;;16.30;99.90;;;;;;5008103;28;25103;-73
2022/09/20 12:31:21;;;;;;;5.28;1.38;;;16.00;99.90;;;;;;5004675;28;25143;-74
2022/09/20 12:34:14;;;;;;;4.57;1.00;;;16.00;99.90;;;;;;5005685;28;25070;-72
2022/09/20 12:36:52;;;;;;;2.50;0.60;;;16.10;99.90;;;;;;5008060;28;25147;-74
2022/09/20 12:39:27;;;;;;;3.90;0.75;;;16.00;99.90;;;;;;4997928;28;25070;-74
2022/09/20 12:41:54;;;;;;;4.82;0.60;;;16.00;99.90;;;;;;5009607;28;25105;-75
2022/09/20 12:44:23;;;;;;;3.60;1.10;;;16.10;99.90;;;;;;5003820;28;25152;-74
2022/09/20 12:46:57;;;;;;;4.32;0.73;;;16.00;99.90;;;;;;5001165;28;24884;-75
2022/09/20 12:52:54;;;;;;;2.67;0.88;;;15.70;99.90;;;;;;5016346;28;25082;-71
2022/09/20 12:55:32;;;;;;;6.50;1.17;;;15.80;99.90;;;;;;5002162;28;25074;-72
2022/09/20 12:58:13;;;;;;;5.53;2.13;;;15.80;99.90;;;;;;4994779;28;25050;-75
2022/09/20 13:00:49;;;;;;;2.50;0.57;;;15.90;99.90;;;;;;4998425;28;25055;-76
2022/09/20 13:03:17;;;;;;;2.67;0.60;;;16.20;99.90;;;;;;5000954;28;25092;-75
2022/09/20 13:05:51;;;;;;;1.38;0.60;;;16.30;99.90;;;;;;4999145;28;25074;-75
2022/09/20 13:08:21;;;;;;;4.30;0.85;;;16.50;99.90;;;;;;5011037;28;25075;-73
2022/09/20 13:10:52;;;;;;;2.50;0.50;;;16.20;99.90;;;;;;4989795;28;25072;-75
2022/09/20 13:13:32;;;;;;;2.17;0.90;;;16.00;99.90;;;;;;5009143;28;25056;-75
2022/09/20 13:16:00;;;;;;;3.08;0.85;;;16.00;99.90;;;;;;4972463;28;25163;-74
2022/09/20 13:18:27;;;;;;;1.38;1.10;;;16.00;99.90;;;;;;5005041;28;25051;-75
2022/09/20 13:20:55;;;;;;;1.98;0.75;;;15.80;99.90;;;;;;4999591;28;25125;-73
2022/09/20 13:23:28;;;;;;;2.50;0.50;;;15.80;99.90;;;;;;5004265;28;25099;-75
2022/09/20 13:25:57;;;;;;;1.93;0.70;;;16.00;99.90;;;;;;4992441;28;25049;-75
2022/09/20 13:28:33;;;;;;;1.90;0.68;;;15.90;99.90;;;;;;5001762;28;25059;-73
2022/09/20 13:31:25;;;;;;;1.83;0.75;;;15.80;99.90;;;;;;5007076;28;25151;-75
2022/09/20 13:33:51;;;;;;;5.53;0.88;;;15.90;99.90;;;;;;5008214;28;25061;-73
2022/09/20 13:36:36;;;;;;;6.15;0.80;;;16.00;99.90;;;;;;4992009;28;25064;-75
2022/09/20 13:39:06;;;;;;;4.63;0.95;;;16.30;99.90;;;;;;4991571;28;25071;-73
2022/09/20 13:41:34;;;;;;;2.75;1.00;;;16.10;99.90;;;;;;4992152;28;25083;-72
2022/09/20 13:44:01;;;;;;;2.35;0.77;;;16.00;99.90;;;;;;5009183;28;25099;-74
2022/09/20 13:46:31;;;;;;;5.78;0.80;;;15.90;99.90;;;;;;5019303;28;25057;-74
2022/09/20 13:49:22;;;;;;;2.30;0.70;;;15.80;99.90;;;;;;4996854;28;25095;-73
2022/09/20 13:51:49;;;;;;;6.55;1.02;;;15.90;99.90;;;;;;5003995;28;25099;-74
2022/09/20 13:54:31;;;;;;;1.52;0.52;;;15.80;99.90;;;;;;4998324;28;25085;-77
2022/09/20 13:57:00;;;;;;;3.90;0.70;;;15.70;99.90;;;;;;5007660;28;25084;-73
2022/09/20 13:59:35;;;;;;;7.32;0.80;;;15.90;99.90;;;;;;5017301;28;25080;-75